Terminal Aerodrome Forecast
Issued by NWS Tampa Bay Area, FL

Home | Current Version | Previous Version | Text Only | Print | Product List | Glossary On
Versions: 1 2 3 4 5 6 7 8 9 10 11 12 13 14 15 16 17
000
FTUS42 KTBW 241100
TAFFMY
TAF
KFMY 241136Z 2412/2512 VRB03KT P6SM FEW035 SCT050
     FM241600 19005KT P6SM VCTS SCT040CB SCT250
     FM241800 23007KT P6SM VCTS SCT050CB SCT250
     FM250000 23005KT P6SM FEW035 SCT100 BKN250
     FM250400 00000KT P6SM FEW010 SCT250=

USA.gov is the U.S. government's official web portal to all federal, state and local government web resources and services.